Grant Co International Airport
KMWH : now visible

Airfield :











YOU CAN JOIN US ON...

 
LOGIN :

Register | Disclaimer

   EN    FR    IT 

 









Legend :    VFR   Marginal VFR   IFR   Intensive IFR   Very Intensive IFR
Visi :
Ceiling :
>= 8 km
>= 3000ft
5 to 8 km
1000 to 3000 ft
1500m to 5 km
500 to 1000 ft
800 to 1500m
200 to 500 ft
< 800m
< 200 ft
Symbols :   Thunderstorms  Fog  Heavy snow  Heavy precipitations  Wind > 20 kt







- Airport Elevation : 1189 ft


KMWH - Grant Co International

CURRENT METAR :
  • 200852Z AUTO 00000KT 10SM CLR 13/08 A2994 RMK AO2 SLP135 T01330078 51002

EXPIRED METARs :
  • 200752Z AUTO 20003KT 10SM FEW120 13/07 A2994 RMK AO2 SLP135 T01280072 402440072
  • 200652Z AUTO 16005KT 10SM CLR 13/06 A2994 RMK AO2 SLP135 T01280061

TAF KMWH
Valid from the 20 at 06:00 until the 21 at 06:00 UTC


200536Z 2006/2106 23005KT P6SM SCT150 BKN200
FM201100 30004KT P6SM OVC120
FM201500 VRB04KT P6SM SCT200
FM201900 23008KT P6SM FEW250
No reported NOTAMs for that airfield.



MET'MAP, your aeronautical weather chart ! - Copyright ORBIFLY December 2007 - Disclaimer

ORBIFLY MET'MAP TEAM :

Programming & Development : Alexandra Zaïnal
Concept & Development : Baudouin d'Aumeries
Co-Development & Prog : Marc-Olivier Méhu
Technical & hardware support : Manuel Goepfert

Contact : metmap@orbifly.com




SOURCES & CREDITS :

   NOAA       Earth
Advisory